Lac Du Bonnet, Canada
Current Conditions -  °F | °C
As of 3:27 PM on Sunday 23 Nov 2014 (Local Time) from CYWG Reporting Station
Light Snow Light Snow  
Wind Chill:   Ceiling: 700
Heat Index: 19°   Visibility: 0.75mi
Dew Point: 18°   Wind: 18mph
Humidity: 93%   Direction: 340°NNW
Pressure: 29.51"   Gusts: NA
Location:  50.27°N, 96.05°W
Report Text: CYWG 232127Z 34016KT 3/4SM R36/P6000FT/U -SG BR OVC007 M07/M08 A2951 RMK ST8 SLP006
Loading
Personal Weather Stations






























Interactive Weather Map New forecast layout! Learn more

10-Day Weather Forecast

Advertisements
Track Severe Weather on mobile